createdAt,value
2018-07-23T00:00:32.725Z,19.70
2018-07-23T00:01:38.148Z,19.60
2018-07-23T00:02:43.594Z,19.60
2018-07-23T00:03:49.175Z,19.60
2018-07-23T00:04:54.770Z,19.60
2018-07-23T00:06:00.192Z,19.60
2018-07-23T00:07:05.983Z,19.60
2018-07-23T00:08:11.356Z,19.60
2018-07-23T00:09:16.925Z,19.60
2018-07-23T00:10:22.423Z,19.60
2018-07-23T00:11:27.902Z,19.60
2018-07-23T00:12:33.318Z,19.60
2018-07-23T00:14:43.885Z,19.70
2018-07-23T00:15:49.348Z,19.70
2018-07-23T00:16:54.890Z,19.70
2018-07-23T00:19:05.440Z,19.70
2018-07-23T00:20:11.308Z,19.70
2018-07-23T00:21:16.891Z,19.70
2018-07-23T00:22:22.360Z,19.80
2018-07-23T00:23:27.789Z,19.70
2018-07-23T00:24:33.445Z,19.80
2018-07-23T00:25:38.911Z,19.80
2018-07-23T00:27:49.462Z,19.90
2018-07-23T00:28:54.865Z,19.80
2018-07-23T00:30:00.327Z,19.80
2018-07-23T00:31:05.929Z,19.80
2018-07-23T00:32:11.368Z,19.80
2018-07-23T00:33:17.240Z,19.80
2018-07-23T00:34:22.818Z,19.80
2018-07-23T00:35:28.356Z,19.90
2018-07-23T00:36:33.775Z,19.80
2018-07-23T00:37:39.240Z,19.80
2018-07-23T00:38:44.737Z,19.80
2018-07-23T00:39:50.336Z,19.80
2018-07-23T00:40:55.816Z,19.80
2018-07-23T00:42:01.291Z,19.70
2018-07-23T00:43:06.800Z,19.70
2018-07-23T00:44:12.671Z,19.70
2018-07-23T00:45:18.273Z,19.60
2018-07-23T00:46:23.829Z,19.60
2018-07-23T00:47:29.289Z,19.60
2018-07-23T00:48:34.771Z,19.60
2018-07-23T00:49:40.222Z,19.60
2018-07-23T00:50:45.661Z,19.60
2018-07-23T00:52:56.380Z,19.50
2018-07-23T00:54:01.882Z,19.50
2018-07-23T00:55:07.428Z,19.40
2018-07-23T00:56:12.929Z,19.40
2018-07-23T00:57:18.401Z,19.50
2018-07-23T00:58:23.884Z,19.40
2018-07-23T00:59:29.402Z,19.40
2018-07-23T01:00:34.897Z,19.40
2018-07-23T01:01:40.383Z,19.30
2018-07-23T01:02:45.894Z,19.40
2018-07-23T01:04:56.581Z,19.30
2018-07-23T01:06:02.041Z,19.30
2018-07-23T01:07:07.769Z,19.30
2018-07-23T01:08:13.188Z,19.30
2018-07-23T01:10:23.808Z,19.20
2018-07-23T01:11:29.272Z,19.10
2018-07-23T01:12:35.599Z,19.10
2018-07-23T01:13:41.056Z,19.00
2018-07-23T01:14:46.468Z,19.00
2018-07-23T01:15:51.905Z,19.00
2018-07-23T01:16:57.351Z,19.00
2018-07-23T01:18:02.804Z,19.00
2018-07-23T01:19:08.231Z,18.90
2018-07-23T01:20:13.733Z,18.90
2018-07-23T01:22:25.712Z,18.80
2018-07-23T01:23:31.223Z,18.80
2018-07-23T01:24:36.846Z,18.70
2018-07-23T01:25:42.557Z,18.60
2018-07-23T01:26:48.017Z,18.60
2018-07-23T01:27:53.692Z,18.60
2018-07-23T01:28:59.202Z,18.50
2018-07-23T01:30:05.599Z,18.40
2018-07-23T01:31:11.162Z,18.30
2018-07-23T01:32:16.581Z,18.30
2018-07-23T01:33:22.084Z,18.20
2018-07-23T01:34:27.499Z,18.20
2018-07-23T01:35:33.008Z,18.10
2018-07-23T01:36:38.469Z,18.00
2018-07-23T01:37:43.929Z,18.00
2018-07-23T01:38:49.356Z,18.00
2018-07-23T01:39:54.816Z,18.00
2018-07-23T01:41:00.380Z,18.00
2018-07-23T01:42:06.317Z,18.00
2018-07-23T01:43:11.777Z,18.00
2018-07-23T01:44:17.169Z,18.00
2018-07-23T01:45:22.767Z,18.00
2018-07-23T01:46:28.189Z,18.00
2018-07-23T01:47:33.817Z,18.00
2018-07-23T01:48:39.284Z,18.10
2018-07-23T01:49:44.746Z,18.10
2018-07-23T01:50:50.169Z,18.00
2018-07-23T01:51:55.634Z,18.00
2018-07-23T01:53:01.268Z,18.00
2018-07-23T01:54:06.820Z,18.00
2018-07-23T01:55:12.436Z,18.00
2018-07-23T01:56:17.908Z,17.90
2018-07-23T01:57:23.353Z,17.80
2018-07-23T01:58:29.213Z,17.80
2018-07-23T01:59:34.667Z,17.70
2018-07-23T02:00:40.190Z,17.70
2018-07-23T02:01:45.612Z,17.60
2018-07-23T02:02:51.279Z,17.60
2018-07-23T02:03:56.724Z,17.60
2018-07-23T02:05:02.184Z,17.50
2018-07-23T02:06:07.928Z,17.50
2018-07-23T02:07:13.417Z,17.40
2018-07-23T02:08:18.955Z,17.40
2018-07-23T02:09:24.357Z,17.40
2018-07-23T02:10:29.764Z,17.30
2018-07-23T02:11:35.242Z,17.30
2018-07-23T02:12:40.738Z,17.30
2018-07-23T02:13:46.138Z,17.30
2018-07-23T02:14:51.557Z,17.30
2018-07-23T02:15:57.097Z,17.30
2018-07-23T02:17:02.513Z,17.30
2018-07-23T02:18:08.433Z,17.30
2018-07-23T02:19:13.824Z,17.30
2018-07-23T02:20:19.263Z,17.30
2018-07-23T02:21:24.721Z,17.20
2018-07-23T02:22:30.287Z,17.20
2018-07-23T02:23:35.764Z,17.20
2018-07-23T02:24:41.144Z,17.10
2018-07-23T02:25:46.601Z,17.10
2018-07-23T02:26:52.196Z,17.10
2018-07-23T02:27:57.608Z,17.10
2018-07-23T02:29:03.251Z,17.10
2018-07-23T02:30:08.695Z,17.10
2018-07-23T02:31:14.097Z,17.10
2018-07-23T02:32:19.657Z,17.00
2018-07-23T02:33:25.156Z,17.00
2018-07-23T02:34:30.602Z,17.00
2018-07-23T02:35:36.367Z,17.00
2018-07-23T02:36:41.830Z,17.00
2018-07-23T02:37:47.701Z,17.00
2018-07-23T02:38:53.216Z,17.00
2018-07-23T02:39:58.660Z,17.00
2018-07-23T02:41:04.282Z,17.00
2018-07-23T02:42:09.740Z,16.90
2018-07-23T02:43:15.207Z,16.90
2018-07-23T02:44:20.718Z,16.90
2018-07-23T02:45:26.243Z,17.00
2018-07-23T02:46:31.664Z,16.90
2018-07-23T02:47:37.102Z,16.90
2018-07-23T02:48:42.616Z,16.80
2018-07-23T02:49:48.104Z,16.80
2018-07-23T02:50:53.621Z,16.80
2018-07-23T02:51:59.084Z,16.80
2018-07-23T02:53:04.501Z,16.80
2018-07-23T02:54:09.933Z,16.70
2018-07-23T02:55:15.342Z,16.70
2018-07-23T02:56:20.906Z,16.70
2018-07-23T02:57:26.362Z,16.70
2018-07-23T02:58:31.745Z,16.70
2018-07-23T02:59:37.256Z,16.70
2018-07-23T03:00:42.676Z,16.70
2018-07-23T03:01:48.178Z,16.70
2018-07-23T03:02:53.694Z,16.70
2018-07-23T03:03:59.257Z,16.70
2018-07-23T03:05:04.880Z,16.70
2018-07-23T03:06:10.342Z,16.70
2018-07-23T03:07:15.836Z,16.70
2018-07-23T03:08:21.803Z,16.70
2018-07-23T03:09:27.274Z,16.60
2018-07-23T03:10:32.805Z,16.70
2018-07-23T03:11:38.263Z,16.70
2018-07-23T03:12:43.882Z,16.60
2018-07-23T03:13:49.504Z,16.60
2018-07-23T03:15:01.729Z,16.60
2018-07-23T03:16:07.215Z,16.50
2018-07-23T03:17:12.912Z,16.50
2018-07-23T03:18:18.348Z,16.50
2018-07-23T03:19:23.856Z,16.50
2018-07-23T03:20:29.324Z,16.50
2018-07-23T03:21:34.774Z,16.40
2018-07-23T03:22:40.288Z,16.40
2018-07-23T03:23:45.869Z,16.40
2018-07-23T03:24:51.428Z,16.50
2018-07-23T03:25:56.877Z,16.40
2018-07-23T03:27:02.329Z,16.40
2018-07-23T03:28:07.792Z,16.40
2018-07-23T03:29:13.314Z,16.40
2018-07-23T03:30:18.853Z,16.40
2018-07-23T03:31:24.305Z,16.30
2018-07-23T03:32:29.752Z,16.20
2018-07-23T03:33:35.264Z,16.20
2018-07-23T03:34:40.737Z,16.20
2018-07-23T03:35:46.346Z,16.20
2018-07-23T03:36:51.820Z,16.20
2018-07-23T03:37:57.268Z,16.20
2018-07-23T03:39:03.075Z,16.20
2018-07-23T03:40:08.492Z,16.20
2018-07-23T03:41:13.900Z,16.20
2018-07-23T03:42:19.346Z,16.10
2018-07-23T03:43:24.811Z,16.20
2018-07-23T03:44:30.293Z,16.10
2018-07-23T03:45:35.757Z,16.20
2018-07-23T03:46:41.269Z,16.10
2018-07-23T03:47:46.672Z,16.00
2018-07-23T03:48:52.324Z,16.00
2018-07-23T03:49:57.781Z,15.90
2018-07-23T03:51:03.200Z,15.90
2018-07-23T03:52:08.629Z,16.00
2018-07-23T03:53:14.104Z,15.90
2018-07-23T03:54:19.588Z,16.00
2018-07-23T03:55:25.078Z,16.00
2018-07-23T03:56:30.559Z,16.00
2018-07-23T03:58:41.045Z,16.10
2018-07-23T03:59:46.572Z,16.00
2018-07-23T04:00:52.074Z,16.10
2018-07-23T04:01:57.515Z,16.10
2018-07-23T04:03:03.017Z,16.10
2018-07-23T04:04:08.588Z,16.00
2018-07-23T04:05:14.048Z,16.10
2018-07-23T04:06:19.874Z,16.10
2018-07-23T04:07:25.313Z,16.10
2018-07-23T04:08:31.053Z,16.10
2018-07-23T04:09:36.616Z,16.10
2018-07-23T04:10:42.213Z,16.10
2018-07-23T04:11:47.606Z,16.20
2018-07-23T04:12:53.252Z,16.20
2018-07-23T04:13:58.754Z,16.20
2018-07-23T04:15:04.338Z,16.20
2018-07-23T04:16:09.808Z,16.20
2018-07-23T04:17:15.301Z,16.40
2018-07-23T04:18:20.936Z,16.60
2018-07-23T04:19:26.440Z,16.90
2018-07-23T04:20:33.795Z,17.10
2018-07-23T04:21:39.246Z,17.40
2018-07-23T04:22:44.802Z,17.70
2018-07-23T04:23:50.400Z,17.90
2018-07-23T04:24:55.792Z,18.20
2018-07-23T04:26:01.264Z,18.30
2018-07-23T04:27:07.580Z,18.60
2018-07-23T04:28:13.211Z,18.70
2018-07-23T04:29:18.665Z,18.90
2018-07-23T04:30:24.488Z,19.10
2018-07-23T04:31:29.945Z,19.30
2018-07-23T04:32:35.405Z,19.40
2018-07-23T04:33:40.839Z,19.50
2018-07-23T04:34:46.281Z,19.60
2018-07-23T04:35:51.735Z,19.80
2018-07-23T04:36:57.234Z,20.00
2018-07-23T04:38:02.775Z,20.10
2018-07-23T04:39:09.085Z,20.30
2018-07-23T04:40:14.702Z,20.30
2018-07-23T04:41:20.204Z,20.50
2018-07-23T04:42:25.745Z,20.70
2018-07-23T04:43:31.207Z,21.00
2018-07-23T04:44:36.761Z,21.20
2018-07-23T04:45:42.225Z,21.10
2018-07-23T04:46:47.635Z,21.30
2018-07-23T04:47:53.092Z,21.50
2018-07-23T04:50:07.300Z,21.70
2018-07-23T04:51:12.720Z,21.70
2018-07-23T04:52:18.329Z,21.70
2018-07-23T04:53:23.718Z,21.80
2018-07-23T04:54:29.230Z,21.60
2018-07-23T04:55:34.661Z,21.70
2018-07-23T04:56:40.129Z,22.00
2018-07-23T04:57:45.614Z,21.90
2018-07-23T04:58:51.196Z,22.10
2018-07-23T04:59:56.685Z,22.20
2018-07-23T05:01:02.153Z,22.20
2018-07-23T05:02:07.880Z,22.30
2018-07-23T05:03:13.357Z,22.20
2018-07-23T05:04:18.749Z,22.00
2018-07-23T05:05:24.417Z,21.70
2018-07-23T05:06:29.841Z,21.30
2018-07-23T05:07:35.289Z,20.90
2018-07-23T05:08:41.354Z,20.50
2018-07-23T05:09:46.788Z,20.20
2018-07-23T05:10:52.353Z,20.00
2018-07-23T05:11:57.873Z,19.80
2018-07-23T05:13:03.652Z,19.60
2018-07-23T05:14:09.878Z,19.40
2018-07-23T05:15:15.352Z,19.20
2018-07-23T05:16:21.060Z,19.10
2018-07-23T05:17:26.487Z,19.00
2018-07-23T05:19:37.008Z,18.90
2018-07-23T05:20:42.428Z,18.90
2018-07-23T05:21:47.932Z,18.90
2018-07-23T05:22:53.381Z,18.90
2018-07-23T05:23:58.945Z,18.90
2018-07-23T05:25:04.562Z,19.00
2018-07-23T05:26:10.172Z,19.00
2018-07-23T05:27:15.718Z,19.00
2018-07-23T05:28:21.227Z,19.00
2018-07-23T05:29:26.929Z,18.90
2018-07-23T05:30:32.417Z,18.90
2018-07-23T05:31:37.871Z,18.90
2018-07-23T05:32:43.492Z,18.80
2018-07-23T05:33:49.011Z,18.90
2018-07-23T05:34:54.499Z,18.90
2018-07-23T05:36:00.053Z,19.00
2018-07-23T05:37:05.749Z,19.00
2018-07-23T05:38:11.465Z,19.00
2018-07-23T05:39:16.931Z,19.10
2018-07-23T05:40:22.514Z,19.10
2018-07-23T05:41:27.927Z,19.10
2018-07-23T05:42:33.368Z,19.10
2018-07-23T05:43:38.992Z,19.20
2018-07-23T05:44:44.863Z,19.20
2018-07-23T05:45:50.265Z,19.20
2018-07-23T05:46:55.727Z,19.20
2018-07-23T05:48:01.163Z,19.30
2018-07-23T05:49:06.741Z,19.40
2018-07-23T05:50:12.240Z,19.50
2018-07-23T05:51:17.796Z,19.50
2018-07-23T05:52:24.549Z,19.60
2018-07-23T05:53:30.105Z,19.60
2018-07-23T05:54:35.527Z,19.50
2018-07-23T05:55:41.036Z,19.50
2018-07-23T05:56:46.501Z,19.60
2018-07-23T05:57:52.009Z,19.70
2018-07-23T05:58:57.474Z,19.70
2018-07-23T06:00:03.011Z,19.80
2018-07-23T06:01:08.502Z,19.80
2018-07-23T06:02:14.410Z,19.80
2018-07-23T06:03:19.825Z,19.80
2018-07-23T06:04:25.320Z,19.80
2018-07-23T06:05:30.733Z,19.80
2018-07-23T06:06:36.544Z,19.80
2018-07-23T06:07:41.936Z,19.80
2018-07-23T06:08:47.348Z,19.90
2018-07-23T06:09:52.844Z,19.90
2018-07-23T06:10:58.489Z,19.90
2018-07-23T06:12:03.961Z,19.90
2018-07-23T06:13:09.531Z,20.00
2018-07-23T06:14:15.001Z,20.00
2018-07-23T06:15:20.496Z,20.00
2018-07-23T06:16:25.917Z,20.10
2018-07-23T06:17:31.446Z,20.20
2018-07-23T06:18:36.916Z,20.30
2018-07-23T06:19:42.373Z,20.30
2018-07-23T06:20:47.873Z,20.30
2018-07-23T06:21:53.709Z,20.40
2018-07-23T06:22:59.140Z,20.40
2018-07-23T06:24:04.769Z,20.50
2018-07-23T06:25:10.284Z,20.50
2018-07-23T06:26:15.789Z,20.50
2018-07-23T06:27:21.348Z,20.50
2018-07-23T06:28:26.809Z,20.50
2018-07-23T06:29:32.261Z,20.40
2018-07-23T06:30:37.814Z,20.40
2018-07-23T06:31:43.267Z,20.50
2018-07-23T06:32:48.804Z,20.50
2018-07-23T06:33:54.316Z,20.70
2018-07-23T06:34:59.816Z,20.80
2018-07-23T06:36:05.324Z,20.70
2018-07-23T06:37:10.769Z,20.70
2018-07-23T06:38:16.312Z,20.80
2018-07-23T06:39:21.928Z,20.80
2018-07-23T06:40:27.419Z,20.80
2018-07-23T06:41:32.929Z,20.90
2018-07-23T06:42:38.373Z,20.80
2018-07-23T06:43:44.009Z,20.90
2018-07-23T06:44:49.519Z,20.90
2018-07-23T06:45:55.041Z,21.00
2018-07-23T06:47:00.528Z,21.00
2018-07-23T06:48:06.110Z,21.10
2018-07-23T06:49:11.573Z,21.20
2018-07-23T06:50:17.044Z,21.30
2018-07-23T06:51:22.547Z,21.30
2018-07-23T06:52:28.040Z,21.30
2018-07-23T06:53:33.485Z,21.30
2018-07-23T06:54:39.001Z,21.20
2018-07-23T06:55:44.416Z,21.30
2018-07-23T06:56:49.921Z,21.30
2018-07-23T06:57:55.545Z,21.40
2018-07-23T06:59:01.064Z,21.40
2018-07-23T07:00:07.308Z,21.40
2018-07-23T07:01:12.773Z,21.40
2018-07-23T07:02:18.332Z,21.60
2018-07-23T07:03:23.812Z,21.50
2018-07-23T07:04:29.570Z,21.50
2018-07-23T07:05:35.046Z,21.50
2018-07-23T07:06:40.732Z,21.60
2018-07-23T07:07:46.177Z,21.60
2018-07-23T07:08:51.789Z,21.70
2018-07-23T07:09:57.193Z,21.70
2018-07-23T07:11:02.675Z,21.80
2018-07-23T07:13:13.121Z,22.00
2018-07-23T07:14:18.636Z,21.90
2018-07-23T07:15:24.208Z,21.90
2018-07-23T07:16:29.652Z,21.80
2018-07-23T07:17:35.144Z,21.80
2018-07-23T07:18:40.597Z,21.90
2018-07-23T07:19:46.497Z,22.00
2018-07-23T07:20:51.979Z,22.10
2018-07-23T07:21:57.413Z,22.20
2018-07-23T07:23:02.837Z,22.30
2018-07-23T07:24:08.346Z,22.40
2018-07-23T07:25:13.812Z,22.60
2018-07-23T07:26:19.208Z,22.70
2018-07-23T07:27:25.100Z,22.80
2018-07-23T07:28:30.619Z,22.90
2018-07-23T07:29:36.036Z,22.90
2018-07-23T07:30:41.868Z,23.00
2018-07-23T07:31:47.276Z,23.20
2018-07-23T07:32:52.790Z,23.30
2018-07-23T07:33:58.180Z,23.20
2018-07-23T07:35:03.618Z,23.20
2018-07-23T07:36:09.051Z,23.20
2018-07-23T07:37:14.545Z,23.20
2018-07-23T07:38:20.057Z,23.20
2018-07-23T07:39:25.491Z,23.10
2018-07-23T07:40:30.961Z,23.10
2018-07-23T07:41:36.461Z,23.10
2018-07-23T07:42:41.904Z,23.00
2018-07-23T07:43:47.320Z,23.00
2018-07-23T07:44:52.972Z,22.90
2018-07-23T07:45:58.436Z,22.90
2018-07-23T07:47:04.150Z,22.80
2018-07-23T07:48:09.656Z,22.70
2018-07-23T07:49:15.289Z,22.70
2018-07-23T07:50:20.816Z,22.70
2018-07-23T07:51:26.393Z,22.80
2018-07-23T07:52:31.911Z,22.90
2018-07-23T07:53:37.636Z,22.90
2018-07-23T07:54:43.232Z,22.90
2018-07-23T07:55:48.676Z,23.00
2018-07-23T07:56:54.473Z,23.10
2018-07-23T07:57:59.948Z,23.20
2018-07-23T07:59:05.386Z,23.20
2018-07-23T08:00:11.029Z,23.20
2018-07-23T08:01:16.516Z,23.30
2018-07-23T08:02:22.038Z,23.40
2018-07-23T08:03:27.536Z,23.50
2018-07-23T08:04:32.984Z,23.60
2018-07-23T08:05:38.436Z,23.60
2018-07-23T08:06:43.944Z,23.70
2018-07-23T08:07:49.445Z,23.70
2018-07-23T08:08:54.936Z,23.60
2018-07-23T08:10:00.368Z,23.80
2018-07-23T08:11:05.824Z,23.90
2018-07-23T08:12:11.270Z,24.00
2018-07-23T08:13:16.897Z,24.00
2018-07-23T08:14:22.435Z,23.80
2018-07-23T08:15:28.055Z,23.80
2018-07-23T08:16:33.537Z,23.80
2018-07-23T08:17:38.980Z,23.90
2018-07-23T08:18:44.850Z,23.80
2018-07-23T08:20:55.689Z,23.70
2018-07-23T08:22:01.138Z,23.60
2018-07-23T08:23:06.700Z,23.70
2018-07-23T08:24:12.404Z,23.80
2018-07-23T08:25:18.252Z,23.80
2018-07-23T08:26:23.890Z,23.90
2018-07-23T08:27:29.360Z,23.90
2018-07-23T08:28:34.772Z,23.90
2018-07-23T08:29:40.512Z,24.00
2018-07-23T08:30:46.116Z,24.00
2018-07-23T08:31:51.642Z,23.90
2018-07-23T08:32:57.212Z,23.90
2018-07-23T08:34:02.821Z,23.90
2018-07-23T08:35:08.314Z,24.00
2018-07-23T08:36:13.800Z,23.90
2018-07-23T08:37:19.353Z,24.00
2018-07-23T08:38:24.856Z,24.00
2018-07-23T08:39:30.354Z,24.00
2018-07-23T08:40:35.781Z,24.10
2018-07-23T08:41:41.285Z,24.20
2018-07-23T08:42:46.729Z,24.20
2018-07-23T08:43:52.241Z,24.20
2018-07-23T08:44:57.755Z,24.40
2018-07-23T08:47:08.462Z,24.30
2018-07-23T08:48:14.019Z,24.30
2018-07-23T08:49:19.586Z,24.20
2018-07-23T08:50:25.038Z,24.20
2018-07-23T08:51:30.505Z,24.30
2018-07-23T08:52:36.042Z,24.40
2018-07-23T08:53:41.969Z,24.40
2018-07-23T08:54:47.530Z,24.30
2018-07-23T08:55:53.008Z,24.20
2018-07-23T08:56:58.483Z,24.20
2018-07-23T08:58:04.076Z,24.20
2018-07-23T08:59:09.539Z,24.30
2018-07-23T09:00:14.965Z,24.50
2018-07-23T09:01:20.600Z,24.70
2018-07-23T09:02:26.123Z,24.90
2018-07-23T09:03:31.545Z,24.80
2018-07-23T09:04:37.022Z,24.90
2018-07-23T09:05:42.517Z,25.00
2018-07-23T09:06:48.105Z,25.00
2018-07-23T09:07:53.545Z,25.00
2018-07-23T09:08:59.028Z,25.00
2018-07-23T09:10:04.520Z,25.10
2018-07-23T09:11:09.960Z,25.20
2018-07-23T09:12:15.430Z,25.20
2018-07-23T09:13:21.116Z,25.30
2018-07-23T09:14:26.547Z,25.30
2018-07-23T09:15:32.008Z,25.40
2018-07-23T09:16:37.583Z,25.40
2018-07-23T09:17:43.031Z,25.50
2018-07-23T09:18:48.616Z,25.60
2018-07-23T09:19:54.112Z,25.60
2018-07-23T09:20:59.777Z,25.60
2018-07-23T09:22:05.535Z,25.60
2018-07-23T09:23:11.071Z,25.50
2018-07-23T09:24:16.914Z,25.50
2018-07-23T09:25:22.406Z,25.60
2018-07-23T09:26:27.876Z,25.60
2018-07-23T09:27:33.322Z,25.70
2018-07-23T09:28:38.748Z,25.70
2018-07-23T09:29:44.236Z,25.70
2018-07-23T09:30:50.638Z,25.80
2018-07-23T09:31:56.147Z,25.80
2018-07-23T09:33:01.649Z,25.80
2018-07-23T09:34:07.216Z,25.80
2018-07-23T09:35:12.609Z,25.70
2018-07-23T09:36:18.121Z,25.60
2018-07-23T09:37:24.396Z,25.70
2018-07-23T09:38:30.184Z,25.80
2018-07-23T09:39:36.036Z,25.90
2018-07-23T09:40:41.501Z,25.90
2018-07-23T09:41:46.984Z,26.00
2018-07-23T09:42:52.431Z,26.10
2018-07-23T09:43:58.301Z,26.20
2018-07-23T09:45:03.804Z,26.30
2018-07-23T09:46:09.264Z,26.40
2018-07-23T09:47:14.681Z,26.50
2018-07-23T09:48:20.116Z,26.70
2018-07-23T09:49:25.584Z,26.70
2018-07-23T09:50:31.079Z,26.80
2018-07-23T09:51:36.623Z,26.80
2018-07-23T09:52:42.135Z,26.80
2018-07-23T09:53:47.577Z,26.80
2018-07-23T09:54:53.397Z,26.70
2018-07-23T09:55:58.894Z,26.60
2018-07-23T09:57:04.508Z,26.60
2018-07-23T09:58:09.946Z,26.70
2018-07-23T09:59:15.376Z,26.70
2018-07-23T10:00:26.016Z,26.70
2018-07-23T10:01:31.892Z,26.70
2018-07-23T10:02:37.336Z,26.70
2018-07-23T10:03:42.958Z,26.80
2018-07-23T10:04:48.313Z,26.90
2018-07-23T10:05:53.717Z,26.90
2018-07-23T10:06:59.216Z,26.90
2018-07-23T10:08:04.776Z,27.00
2018-07-23T10:09:11.648Z,27.10
2018-07-23T10:10:17.289Z,27.20
2018-07-23T10:11:22.953Z,27.30
2018-07-23T10:12:28.501Z,27.30
2018-07-23T10:13:33.920Z,27.20
2018-07-23T10:14:39.429Z,27.20
2018-07-23T10:15:45.421Z,27.20
2018-07-23T10:16:50.913Z,27.30
2018-07-23T10:17:56.376Z,27.20
2018-07-23T10:19:01.934Z,27.20
2018-07-23T10:20:07.689Z,27.20
2018-07-23T10:21:13.128Z,27.20
2018-07-23T10:22:18.610Z,27.00
2018-07-23T10:23:24.052Z,26.90
2018-07-23T10:24:29.865Z,26.90
2018-07-23T10:25:36.205Z,26.80
2018-07-23T10:26:41.573Z,27.00
2018-07-23T10:27:46.992Z,27.10
2018-07-23T10:29:57.525Z,27.30
2018-07-23T10:31:03.084Z,27.50
2018-07-23T10:32:08.552Z,27.70
2018-07-23T10:33:13.980Z,27.90
2018-07-23T10:34:19.532Z,27.80
2018-07-23T10:35:25.057Z,27.80
2018-07-23T10:36:30.535Z,27.90
2018-07-23T10:37:35.960Z,27.70
2018-07-23T10:39:46.534Z,27.80
2018-07-23T10:40:52.100Z,27.80
2018-07-23T10:41:57.600Z,27.80
2018-07-23T10:43:03.092Z,27.80
2018-07-23T10:44:08.713Z,27.80
2018-07-23T10:45:14.237Z,27.80
2018-07-23T10:46:19.850Z,27.70
2018-07-23T10:47:25.372Z,27.70
2018-07-23T10:48:30.797Z,27.80
2018-07-23T10:49:36.263Z,27.80
2018-07-23T10:50:41.688Z,27.80
2018-07-23T10:51:47.121Z,27.80
2018-07-23T10:52:52.597Z,27.90
2018-07-23T10:53:58.048Z,27.80
2018-07-23T10:55:03.533Z,27.90
2018-07-23T10:56:09.005Z,27.80
2018-07-23T10:57:14.854Z,27.80
2018-07-23T10:58:20.409Z,27.80
2018-07-23T10:59:25.882Z,27.80
2018-07-23T11:00:31.308Z,27.90
2018-07-23T11:01:36.778Z,27.80
2018-07-23T11:02:42.241Z,27.90
2018-07-23T11:03:47.661Z,27.90
2018-07-23T11:04:53.157Z,28.10
2018-07-23T11:05:58.617Z,28.20
2018-07-23T11:07:04.120Z,28.20
2018-07-23T11:08:09.633Z,28.20
2018-07-23T11:09:15.070Z,28.30
2018-07-23T11:10:21.108Z,28.40
2018-07-23T11:11:26.581Z,28.50
2018-07-23T11:12:32.008Z,28.30
2018-07-23T11:13:37.456Z,28.10
2018-07-23T11:14:42.870Z,27.90
2018-07-23T11:15:48.288Z,27.80
2018-07-23T11:16:53.948Z,27.70
2018-07-23T11:17:59.352Z,27.70
2018-07-23T11:19:04.861Z,27.70
2018-07-23T11:20:12.663Z,27.80
2018-07-23T11:21:18.242Z,27.90
2018-07-23T11:22:23.714Z,28.00
2018-07-23T11:23:29.352Z,28.30
2018-07-23T11:24:34.875Z,28.40
2018-07-23T11:25:40.670Z,28.60
2018-07-23T11:26:45.846Z,28.60
2018-07-23T11:27:51.418Z,28.60
2018-07-23T11:28:56.878Z,28.50
2018-07-23T11:30:02.388Z,28.40
2018-07-23T11:31:08.625Z,28.50
2018-07-23T11:32:14.109Z,28.60
2018-07-23T11:33:19.644Z,28.70
2018-07-23T11:34:25.086Z,28.70
2018-07-23T11:35:30.717Z,28.60
2018-07-23T11:36:36.211Z,28.50
2018-07-23T11:37:41.688Z,28.40
2018-07-23T11:38:47.221Z,28.40
2018-07-23T11:39:52.638Z,28.50
2018-07-23T11:40:58.210Z,28.50
2018-07-23T11:42:03.697Z,28.60
2018-07-23T11:43:09.554Z,28.50
2018-07-23T11:44:14.982Z,28.50
2018-07-23T11:45:21.150Z,28.60
2018-07-23T11:46:26.532Z,28.40
2018-07-23T11:47:31.951Z,28.20
2018-07-23T11:48:37.465Z,28.20
2018-07-23T11:49:42.972Z,28.20
2018-07-23T11:50:48.563Z,28.10
2018-07-23T11:51:54.017Z,28.00
2018-07-23T11:52:59.480Z,28.00
2018-07-23T11:54:05.041Z,27.90
2018-07-23T11:55:10.489Z,27.80
2018-07-23T11:56:15.950Z,27.70
2018-07-23T11:57:21.388Z,27.80
2018-07-23T11:58:26.881Z,27.90
2018-07-23T11:59:32.447Z,28.00
2018-07-23T12:00:37.960Z,28.20
2018-07-23T12:01:43.365Z,28.40
2018-07-23T12:02:48.909Z,28.60
2018-07-23T12:03:54.645Z,28.70
2018-07-23T12:05:00.210Z,28.70
2018-07-23T12:06:05.928Z,28.80
2018-07-23T12:07:11.356Z,28.80
2018-07-23T12:08:16.747Z,28.90
2018-07-23T12:09:22.220Z,29.00
2018-07-23T12:10:27.740Z,29.00
2018-07-23T12:11:33.203Z,28.90
2018-07-23T12:12:38.637Z,28.90
2018-07-23T12:13:44.160Z,28.80
2018-07-23T12:14:49.648Z,28.90
2018-07-23T12:15:55.331Z,29.00
2018-07-23T12:17:00.728Z,29.10
2018-07-23T12:18:07.054Z,29.10
2018-07-23T12:19:12.467Z,29.30
2018-07-23T12:20:18.056Z,29.40
2018-07-23T12:21:23.552Z,29.50
2018-07-23T12:22:29.480Z,29.60
2018-07-23T12:23:34.900Z,29.70
2018-07-23T12:24:40.350Z,29.70
2018-07-23T12:25:45.830Z,29.60
2018-07-23T12:26:51.296Z,29.60
2018-07-23T12:29:02.085Z,29.60
2018-07-23T12:30:07.601Z,29.60
2018-07-23T12:31:13.079Z,29.60
2018-07-23T12:32:18.668Z,29.60
2018-07-23T12:33:25.347Z,29.60
2018-07-23T12:34:30.778Z,29.80
2018-07-23T12:35:36.231Z,29.90
2018-07-23T12:36:41.663Z,29.90
2018-07-23T12:37:47.202Z,29.90
2018-07-23T12:38:53.570Z,29.90
2018-07-23T12:39:59.153Z,30.00
2018-07-23T12:42:09.623Z,30.10
2018-07-23T12:43:15.120Z,30.10
2018-07-23T12:44:20.726Z,30.00
2018-07-23T12:45:26.144Z,30.00
2018-07-23T12:46:31.605Z,30.00
2018-07-23T12:47:37.044Z,30.00
2018-07-23T12:48:42.475Z,29.90
2018-07-23T12:49:47.930Z,29.90
2018-07-23T12:50:53.404Z,29.90
2018-07-23T12:51:58.859Z,29.80
2018-07-23T12:53:04.374Z,29.90
2018-07-23T12:54:09.856Z,30.00
2018-07-23T12:55:15.388Z,30.00
2018-07-23T12:56:20.876Z,30.00
2018-07-23T12:57:26.330Z,30.10
2018-07-23T12:58:31.798Z,30.10
2018-07-23T12:59:37.235Z,30.20
2018-07-23T13:00:43.136Z,30.30
2018-07-23T13:01:48.640Z,30.40
2018-07-23T13:03:59.149Z,30.40
2018-07-23T13:05:04.837Z,30.30
2018-07-23T13:06:10.289Z,30.40
2018-07-23T13:08:21.117Z,30.50
2018-07-23T13:09:26.602Z,30.60
2018-07-23T13:10:32.022Z,30.70
2018-07-23T13:11:37.861Z,30.80
2018-07-23T13:12:43.301Z,30.90
2018-07-23T13:13:48.748Z,31.00
2018-07-23T13:14:54.426Z,31.00
2018-07-23T13:15:59.920Z,31.00
2018-07-23T13:17:05.898Z,31.00
2018-07-23T13:18:11.358Z,31.10
2018-07-23T13:19:16.911Z,31.10
2018-07-23T13:20:22.668Z,31.20
2018-07-23T13:21:28.093Z,31.30
2018-07-23T13:22:33.603Z,31.30
2018-07-23T13:23:39.084Z,31.30
2018-07-23T13:24:44.525Z,31.30
2018-07-23T13:25:50.434Z,31.20
2018-07-23T13:26:55.885Z,31.20
2018-07-23T13:28:01.362Z,31.00
2018-07-23T13:29:06.996Z,30.90
2018-07-23T13:30:12.447Z,30.80
2018-07-23T13:31:17.840Z,30.60
2018-07-23T13:32:23.410Z,30.50
2018-07-23T13:33:28.857Z,30.40
2018-07-23T13:34:34.337Z,30.50
2018-07-23T13:35:39.826Z,30.50
2018-07-23T13:36:45.306Z,30.60
2018-07-23T13:37:50.867Z,30.70
2018-07-23T13:38:56.568Z,30.70
2018-07-23T13:40:02.065Z,30.80
2018-07-23T13:41:08.224Z,30.90
2018-07-23T13:42:14.076Z,30.90
2018-07-23T13:43:19.714Z,30.90
2018-07-23T13:44:25.121Z,30.90
2018-07-23T13:45:30.565Z,30.90
2018-07-23T13:46:36.033Z,31.00
2018-07-23T13:47:41.569Z,31.00
2018-07-23T13:48:47.005Z,31.10
2018-07-23T13:49:52.536Z,31.30
2018-07-23T13:50:58.017Z,31.20
2018-07-23T13:52:03.458Z,31.30
2018-07-23T13:53:08.916Z,31.40
2018-07-23T13:54:14.323Z,31.30
2018-07-23T13:55:19.776Z,31.20
2018-07-23T13:56:25.765Z,30.90
2018-07-23T13:57:31.242Z,31.00
2018-07-23T13:58:36.683Z,30.70
2018-07-23T13:59:42.272Z,30.50
2018-07-23T14:00:47.806Z,30.40
2018-07-23T14:01:53.289Z,30.30
2018-07-23T14:02:58.736Z,30.10
2018-07-23T14:04:04.209Z,30.10
2018-07-23T14:05:09.694Z,30.10
2018-07-23T14:06:15.557Z,30.20
2018-07-23T14:07:21.021Z,30.20
2018-07-23T14:08:26.492Z,30.30
2018-07-23T14:09:32.120Z,30.40
2018-07-23T14:10:37.561Z,30.70
2018-07-23T14:11:43.033Z,30.70
2018-07-23T14:12:48.492Z,30.80
2018-07-23T14:13:54.264Z,30.90
2018-07-23T14:14:59.717Z,31.00
2018-07-23T14:16:05.153Z,31.00
2018-07-23T14:17:11.076Z,31.00
2018-07-23T14:18:16.580Z,30.90
2018-07-23T14:19:22.034Z,30.80
2018-07-23T14:20:27.456Z,30.90
2018-07-23T14:21:33.172Z,31.00
2018-07-23T14:22:41.658Z,31.00
2018-07-23T14:23:47.609Z,31.20
2018-07-23T14:24:53.045Z,31.20